sensor_id;sensor_type;location;lat;lon;timestamp;temperature;humidity
22698;DHT22;11516;51.612;7.510;2023-04-01T00:00:46;9.60;99.90
22698;DHT22;11516;51.612;7.510;2023-04-01T00:03:12;9.60;99.90
22698;DHT22;11516;51.612;7.510;2023-04-01T00:05:37;9.70;99.90
22698;DHT22;11516;51.612;7.510;2023-04-01T00:08:03;9.50;99.90
22698;DHT22;11516;51.612;7.510;2023-04-01T00:10:28;9.60;99.90
22698;DHT22;11516;51.612;7.510;2023-04-01T00:12:54;9.50;99.90
22698;DHT22;11516;51.612;7.510;2023-04-01T00:15:20;9.60;99.90
22698;DHT22;11516;51.612;7.510;2023-04-01T00:17:46;9.60;99.90
22698;DHT22;11516;51.612;7.510;2023-04-01T00:20:12;9.60;99.90
22698;DHT22;11516;51.612;7.510;2023-04-01T00:22:37;9.60;99.90
22698;DHT22;11516;51.612;7.510;2023-04-01T00:25:04;9.50;99.90
22698;DHT22;11516;51.612;7.510;2023-04-01T00:27:30;9.60;99.90
22698;DHT22;11516;51.612;7.510;2023-04-01T00:29:55;9.50;99.90
22698;DHT22;11516;51.612;7.510;2023-04-01T00:32:21;9.50;99.90
22698;DHT22;11516;51.612;7.510;2023-04-01T00:34:50;9.50;99.90
22698;DHT22;11516;51.612;7.510;2023-04-01T00:37:17;9.50;99.90
22698;DHT22;11516;51.612;7.510;2023-04-01T00:39:42;9.50;99.90
22698;DHT22;11516;51.612;7.510;2023-04-01T00:42:09;9.50;99.90
22698;DHT22;11516;51.612;7.510;2023-04-01T00:44:37;9.50;99.90
22698;DHT22;11516;51.612;7.510;2023-04-01T00:47:02;9.40;99.90
22698;DHT22;11516;51.612;7.510;2023-04-01T00:49:44;9.40;99.90
22698;DHT22;11516;51.612;7.510;2023-04-01T00:52:13;9.50;99.90
22698;DHT22;11516;51.612;7.510;2023-04-01T00:54:41;9.50;99.90
22698;DHT22;11516;51.612;7.510;2023-04-01T00:57:13;9.40;99.90
22698;DHT22;11516;51.612;7.510;2023-04-01T00:59:43;9.40;99.90
22698;DHT22;11516;51.612;7.510;2023-04-01T01:02:11;9.40;99.90
22698;DHT22;11516;51.612;7.510;2023-04-01T01:04:38;9.40;99.90
22698;DHT22;11516;51.612;7.510;2023-04-01T01:10:12;9.40;99.90
22698;DHT22;11516;51.612;7.510;2023-04-01T01:15:27;9.50;99.90
22698;DHT22;11516;51.612;7.510;2023-04-01T01:20:57;9.50;99.90
22698;DHT22;11516;51.612;7.510;2023-04-01T01:26:18;9.50;99.90
22698;DHT22;11516;51.612;7.510;2023-04-01T01:37:43;9.50;99.90
22698;DHT22;11516;51.612;7.510;2023-04-01T01:40:11;9.50;99.90
22698;DHT22;11516;51.612;7.510;2023-04-01T01:42:40;9.50;99.90
22698;DHT22;11516;51.612;7.510;2023-04-01T01:45:08;9.40;99.90
22698;DHT22;11516;51.612;7.510;2023-04-01T01:47:35;9.40;99.90
22698;DHT22;11516;51.612;7.510;2023-04-01T01:50:02;9.40;99.90
22698;DHT22;11516;51.612;7.510;2023-04-01T01:52:29;9.40;99.90
22698;DHT22;11516;51.612;7.510;2023-04-01T01:54:56;9.40;99.90
22698;DHT22;11516;51.612;7.510;2023-04-01T01:57:28;9.40;99.90
22698;DHT22;11516;51.612;7.510;2023-04-01T01:59:58;9.40;99.90
22698;DHT22;11516;51.612;7.510;2023-04-01T02:02:25;9.40;99.90
22698;DHT22;11516;51.612;7.510;2023-04-01T02:04:52;9.40;99.90
22698;DHT22;11516;51.612;7.510;2023-04-01T02:07:22;9.30;99.90
22698;DHT22;11516;51.612;7.510;2023-04-01T02:09:49;9.40;99.90
22698;DHT22;11516;51.612;7.510;2023-04-01T02:12:16;9.30;99.90
22698;DHT22;11516;51.612;7.510;2023-04-01T02:14:52;9.30;99.90
22698;DHT22;11516;51.612;7.510;2023-04-01T02:17:23;9.30;99.90
22698;DHT22;11516;51.612;7.510;2023-04-01T02:20:34;9.30;99.90
22698;DHT22;11516;51.612;7.510;2023-04-01T02:22:54;9.30;99.90
22698;DHT22;11516;51.612;7.510;2023-04-01T02:25:27;9.30;99.90
22698;DHT22;11516;51.612;7.510;2023-04-01T02:27:55;9.30;99.90
22698;DHT22;11516;51.612;7.510;2023-04-01T02:30:21;9.30;99.90
22698;DHT22;11516;51.612;7.510;2023-04-01T02:32:48;9.30;99.90
22698;DHT22;11516;51.612;7.510;2023-04-01T02:35:15;9.30;99.90
22698;DHT22;11516;51.612;7.510;2023-04-01T02:37:42;9.40;99.90
22698;DHT22;11516;51.612;7.510;2023-04-01T02:40:11;9.40;99.90
22698;DHT22;11516;51.612;7.510;2023-04-01T02:42:37;9.40;99.90
22698;DHT22;11516;51.612;7.510;2023-04-01T02:45:03;9.40;99.90
22698;DHT22;11516;51.612;7.510;2023-04-01T02:47:29;9.30;99.90
22698;DHT22;11516;51.612;7.510;2023-04-01T02:49:55;9.40;99.90
22698;DHT22;11516;51.612;7.510;2023-04-01T02:52:24;9.40;99.90
22698;DHT22;11516;51.612;7.510;2023-04-01T02:54:50;9.30;99.90
22698;DHT22;11516;51.612;7.510;2023-04-01T02:57:16;9.30;99.90
22698;DHT22;11516;51.612;7.510;2023-04-01T02:59:41;9.40;99.90
22698;DHT22;11516;51.612;7.510;2023-04-01T03:02:07;9.30;99.90
22698;DHT22;11516;51.612;7.510;2023-04-01T03:04:32;9.30;99.90
22698;DHT22;11516;51.612;7.510;2023-04-01T03:06:58;9.30;99.90
22698;DHT22;11516;51.612;7.510;2023-04-01T03:09:24;9.20;99.90
22698;DHT22;11516;51.612;7.510;2023-04-01T03:11:49;9.20;99.90
22698;DHT22;11516;51.612;7.510;2023-04-01T03:14:15;9.20;99.90
22698;DHT22;11516;51.612;7.510;2023-04-01T03:16:40;9.20;99.90
22698;DHT22;11516;51.612;7.510;2023-04-01T03:19:06;9.20;99.90
22698;DHT22;11516;51.612;7.510;2023-04-01T03:21:31;9.20;99.90
22698;DHT22;11516;51.612;7.510;2023-04-01T03:23:57;9.20;99.90
22698;DHT22;11516;51.612;7.510;2023-04-01T03:26:24;9.20;99.90
22698;DHT22;11516;51.612;7.510;2023-04-01T03:28:49;9.20;99.90
22698;DHT22;11516;51.612;7.510;2023-04-01T03:31:15;9.10;99.90
22698;DHT22;11516;51.612;7.510;2023-04-01T03:33:41;9.20;99.90
22698;DHT22;11516;51.612;7.510;2023-04-01T03:36:08;9.20;99.90
22698;DHT22;11516;51.612;7.510;2023-04-01T03:38:34;9.20;99.90
22698;DHT22;11516;51.612;7.510;2023-04-01T03:41:00;10.70;99.90
22698;DHT22;11516;51.612;7.510;2023-04-01T03:43:25;9.10;99.90
22698;DHT22;11516;51.612;7.510;2023-04-01T03:45:51;9.10;99.90
22698;DHT22;11516;51.612;7.510;2023-04-01T03:48:18;9.20;99.90
22698;DHT22;11516;51.612;7.510;2023-04-01T03:50:44;9.10;99.90
22698;DHT22;11516;51.612;7.510;2023-04-01T03:53:10;9.10;99.90
22698;DHT22;11516;51.612;7.510;2023-04-01T03:55:36;9.10;99.90
22698;DHT22;11516;51.612;7.510;2023-04-01T03:58:03;9.10;99.90
22698;DHT22;11516;51.612;7.510;2023-04-01T04:00:29;9.10;99.90
22698;DHT22;11516;51.612;7.510;2023-04-01T04:02:55;9.10;99.90
22698;DHT22;11516;51.612;7.510;2023-04-01T04:05:22;9.10;99.90
22698;DHT22;11516;51.612;7.510;2023-04-01T04:07:48;9.10;99.90
22698;DHT22;11516;51.612;7.510;2023-04-01T04:10:13;9.10;99.90
22698;DHT22;11516;51.612;7.510;2023-04-01T04:12:39;9.20;99.90
22698;DHT22;11516;51.612;7.510;2023-04-01T04:15:06;9.20;99.90
22698;DHT22;11516;51.612;7.510;2023-04-01T04:17:32;9.10;99.90
22698;DHT22;11516;51.612;7.510;2023-04-01T04:19:57;9.10;99.90
22698;DHT22;11516;51.612;7.510;2023-04-01T04:22:23;9.10;99.90
22698;DHT22;11516;51.612;7.510;2023-04-01T04:24:48;9.10;99.90
22698;DHT22;11516;51.612;7.510;2023-04-01T04:27:14;9.10;99.90
22698;DHT22;11516;51.612;7.510;2023-04-01T04:29:39;9.10;99.90
22698;DHT22;11516;51.612;7.510;2023-04-01T04:32:05;9.10;99.90
22698;DHT22;11516;51.612;7.510;2023-04-01T04:34:31;9.10;99.90
22698;DHT22;11516;51.612;7.510;2023-04-01T04:36:56;9.10;99.90
22698;DHT22;11516;51.612;7.510;2023-04-01T04:39:22;9.10;99.90
22698;DHT22;11516;51.612;7.510;2023-04-01T04:41:47;9.10;99.90
22698;DHT22;11516;51.612;7.510;2023-04-01T04:44:13;10.20;99.90
22698;DHT22;11516;51.612;7.510;2023-04-01T04:46:38;9.10;99.90
22698;DHT22;11516;51.612;7.510;2023-04-01T04:49:05;9.10;99.90
22698;DHT22;11516;51.612;7.510;2023-04-01T04:51:31;9.20;99.90
22698;DHT22;11516;51.612;7.510;2023-04-01T04:53:59;9.10;99.90
22698;DHT22;11516;51.612;7.510;2023-04-01T04:56:25;9.20;99.90
22698;DHT22;11516;51.612;7.510;2023-04-01T04:58:52;9.20;99.90
22698;DHT22;11516;51.612;7.510;2023-04-01T05:01:18;9.20;99.90
22698;DHT22;11516;51.612;7.510;2023-04-01T05:03:44;9.10;99.90
22698;DHT22;11516;51.612;7.510;2023-04-01T05:06:12;9.20;99.90
22698;DHT22;11516;51.612;7.510;2023-04-01T05:08:38;9.20;99.90
22698;DHT22;11516;51.612;7.510;2023-04-01T05:11:07;9.20;99.90
22698;DHT22;11516;51.612;7.510;2023-04-01T05:13:35;9.20;99.90
22698;DHT22;11516;51.612;7.510;2023-04-01T05:16:01;9.10;99.90
22698;DHT22;11516;51.612;7.510;2023-04-01T05:18:26;9.20;99.90
22698;DHT22;11516;51.612;7.510;2023-04-01T05:20:53;9.20;99.90
22698;DHT22;11516;51.612;7.510;2023-04-01T05:23:21;9.20;99.90
22698;DHT22;11516;51.612;7.510;2023-04-01T05:25:48;9.20;99.90
22698;DHT22;11516;51.612;7.510;2023-04-01T05:28:14;9.20;99.90
22698;DHT22;11516;51.612;7.510;2023-04-01T05:30:40;9.20;99.90
22698;DHT22;11516;51.612;7.510;2023-04-01T05:33:07;9.20;99.90
22698;DHT22;11516;51.612;7.510;2023-04-01T05:35:33;9.20;99.90
22698;DHT22;11516;51.612;7.510;2023-04-01T05:37:58;9.40;99.90
22698;DHT22;11516;51.612;7.510;2023-04-01T05:40:24;9.20;99.90
22698;DHT22;11516;51.612;7.510;2023-04-01T05:42:50;9.30;99.90
22698;DHT22;11516;51.612;7.510;2023-04-01T05:45:15;9.30;99.90
22698;DHT22;11516;51.612;7.510;2023-04-01T05:47:41;9.20;99.90
22698;DHT22;11516;51.612;7.510;2023-04-01T05:50:08;9.30;99.90
22698;DHT22;11516;51.612;7.510;2023-04-01T05:52:34;9.30;99.90
22698;DHT22;11516;51.612;7.510;2023-04-01T05:55:00;9.30;99.90
22698;DHT22;11516;51.612;7.510;2023-04-01T05:57:26;9.30;99.90
22698;DHT22;11516;51.612;7.510;2023-04-01T05:59:51;9.30;99.90
22698;DHT22;11516;51.612;7.510;2023-04-01T06:02:17;9.40;99.90
22698;DHT22;11516;51.612;7.510;2023-04-01T06:04:43;9.30;99.90
22698;DHT22;11516;51.612;7.510;2023-04-01T06:07:14;9.40;99.90
22698;DHT22;11516;51.612;7.510;2023-04-01T06:09:40;9.40;99.90
22698;DHT22;11516;51.612;7.510;2023-04-01T06:17:43;9.40;99.90
22698;DHT22;11516;51.612;7.510;2023-04-01T06:25:48;9.50;99.90
22698;DHT22;11516;51.612;7.510;2023-04-01T06:31:37;9.50;99.90
22698;DHT22;11516;51.612;7.510;2023-04-01T06:39:24;9.50;99.90
22698;DHT22;11516;51.612;7.510;2023-04-01T06:47:34;9.70;99.90
22698;DHT22;11516;51.612;7.510;2023-04-01T06:50:16;9.60;99.90
22698;DHT22;11516;51.612;7.510;2023-04-01T06:53:39;9.60;99.90
22698;DHT22;11516;51.612;7.510;2023-04-01T06:55:47;9.60;99.90
22698;DHT22;11516;51.612;7.510;2023-04-01T06:58:23;9.60;99.90
22698;DHT22;11516;51.612;7.510;2023-04-01T07:00:53;9.70;99.90
22698;DHT22;11516;51.612;7.510;2023-04-01T07:03:44;9.70;99.90
22698;DHT22;11516;51.612;7.510;2023-04-01T07:06:38;9.70;99.90
22698;DHT22;11516;51.612;7.510;2023-04-01T07:09:06;9.70;99.90
22698;DHT22;11516;51.612;7.510;2023-04-01T07:11:35;9.70;99.90
22698;DHT22;11516;51.612;7.510;2023-04-01T07:16:38;9.70;99.90
22698;DHT22;11516;51.612;7.510;2023-04-01T07:19:30;9.70;99.90
22698;DHT22;11516;51.612;7.510;2023-04-01T07:22:03;9.60;99.90
22698;DHT22;11516;51.612;7.510;2023-04-01T07:24:36;9.60;99.90
22698;DHT22;11516;51.612;7.510;2023-04-01T07:27:03;9.60;99.90
22698;DHT22;11516;51.612;7.510;2023-04-01T07:29:30;9.60;99.90
22698;DHT22;11516;51.612;7.510;2023-04-01T07:35:13;9.70;99.90
22698;DHT22;11516;51.612;7.510;2023-04-01T07:44:06;9.70;99.90
22698;DHT22;11516;51.612;7.510;2023-04-01T07:46:50;9.60;99.90
22698;DHT22;11516;51.612;7.510;2023-04-01T07:54:57;9.60;99.90
22698;DHT22;11516;51.612;7.510;2023-04-01T07:57:43;9.60;99.90
22698;DHT22;11516;51.612;7.510;2023-04-01T08:00:20;9.70;99.90
22698;DHT22;11516;51.612;7.510;2023-04-01T08:06:14;9.60;99.90
22698;DHT22;11516;51.612;7.510;2023-04-01T08:08:42;9.70;99.90
22698;DHT22;11516;51.612;7.510;2023-04-01T08:11:43;9.70;99.90
22698;DHT22;11516;51.612;7.510;2023-04-01T08:14:39;9.80;99.90
22698;DHT22;11516;51.612;7.510;2023-04-01T08:20:18;9.80;99.90
22698;DHT22;11516;51.612;7.510;2023-04-01T08:23:36;9.80;99.90
22698;DHT22;11516;51.612;7.510;2023-04-01T08:25:40;9.90;99.90
22698;DHT22;11516;51.612;7.510;2023-04-01T08:28:23;9.80;99.90
22698;DHT22;11516;51.612;7.510;2023-04-01T08:30:54;9.80;99.90
22698;DHT22;11516;51.612;7.510;2023-04-01T08:33:29;9.90;99.90
22698;DHT22;11516;51.612;7.510;2023-04-01T08:36:15;9.90;99.90
22698;DHT22;11516;51.612;7.510;2023-04-01T08:45:03;10.10;99.90
22698;DHT22;11516;51.612;7.510;2023-04-01T08:47:54;10.00;99.90
22698;DHT22;11516;51.612;7.510;2023-04-01T08:50:49;9.90;99.90
22698;DHT22;11516;51.612;7.510;2023-04-01T08:53:28;10.00;99.90
22698;DHT22;11516;51.612;7.510;2023-04-01T08:56:06;10.00;99.90
22698;DHT22;11516;51.612;7.510;2023-04-01T09:01:58;10.10;99.90
22698;DHT22;11516;51.612;7.510;2023-04-01T09:16:05;9.90;99.90
22698;DHT22;11516;51.612;7.510;2023-04-01T09:27:14;10.00;99.90
22698;DHT22;11516;51.612;7.510;2023-04-01T09:35:46;10.10;99.90
22698;DHT22;11516;51.612;7.510;2023-04-01T09:40:58;10.00;99.90
22698;DHT22;11516;51.612;7.510;2023-04-01T09:43:54;10.10;99.90
22698;DHT22;11516;51.612;7.510;2023-04-01T10:05:16;10.20;99.90
22698;DHT22;11516;51.612;7.510;2023-04-01T10:08:09;10.10;99.90
22698;DHT22;11516;51.612;7.510;2023-04-01T10:10:47;10.00;99.90
22698;DHT22;11516;51.612;7.510;2023-04-01T10:16:39;10.30;99.90
22698;DHT22;11516;51.612;7.510;2023-04-01T10:19:25;10.10;99.90
22698;DHT22;11516;51.612;7.510;2023-04-01T10:22:03;10.00;99.90
22698;DHT22;11516;51.612;7.510;2023-04-01T10:24:55;10.10;99.90
22698;DHT22;11516;51.612;7.510;2023-04-01T10:33:12;10.40;99.90
22698;DHT22;11516;51.612;7.510;2023-04-01T10:38:45;10.40;99.90
22698;DHT22;11516;51.612;7.510;2023-04-01T10:44:37;10.60;99.90
22698;DHT22;11516;51.612;7.510;2023-04-01T10:53:24;10.60;99.90
22698;DHT22;11516;51.612;7.510;2023-04-01T11:10:45;10.70;99.90
22698;DHT22;11516;51.612;7.510;2023-04-01T11:19:02;10.60;99.90
22698;DHT22;11516;51.612;7.510;2023-04-01T11:27:30;10.70;99.90
22698;DHT22;11516;51.612;7.510;2023-04-01T11:32:52;10.80;99.90
22698;DHT22;11516;51.612;7.510;2023-04-01T11:35:33;10.70;99.90
22698;DHT22;11516;51.612;7.510;2023-04-01T11:40:51;10.80;99.90
22698;DHT22;11516;51.612;7.510;2023-04-01T11:43:41;10.60;99.90
22698;DHT22;11516;51.612;7.510;2023-04-01T11:49:20;10.60;99.90
22698;DHT22;11516;51.612;7.510;2023-04-01T11:52:21;10.60;99.90
22698;DHT22;11516;51.612;7.510;2023-04-01T11:55:06;10.70;99.90
22698;DHT22;11516;51.612;7.510;2023-04-01T11:57:50;10.80;99.90
22698;DHT22;11516;51.612;7.510;2023-04-01T12:00:22;10.90;99.90
22698;DHT22;11516;51.612;7.510;2023-04-01T12:05:47;11.20;99.90
22698;DHT22;11516;51.612;7.510;2023-04-01T12:11:21;11.10;99.90
22698;DHT22;11516;51.612;7.510;2023-04-01T12:17:09;11.00;99.90
22698;DHT22;11516;51.612;7.510;2023-04-01T12:19:51;11.10;99.90
22698;DHT22;11516;51.612;7.510;2023-04-01T12:23:07;11.00;99.90
22698;DHT22;11516;51.612;7.510;2023-04-01T12:26:13;11.00;99.90
22698;DHT22;11516;51.612;7.510;2023-04-01T12:31:42;10.70;99.90
22698;DHT22;11516;51.612;7.510;2023-04-01T12:34:34;10.70;99.90
22698;DHT22;11516;51.612;7.510;2023-04-01T12:40:20;10.60;99.90
22698;DHT22;11516;51.612;7.510;2023-04-01T12:45:49;10.60;99.90
22698;DHT22;11516;51.612;7.510;2023-04-01T12:48:47;10.60;99.90
22698;DHT22;11516;51.612;7.510;2023-04-01T12:56:53;10.60;99.90
22698;DHT22;11516;51.612;7.510;2023-04-01T13:11:02;10.70;99.90
22698;DHT22;11516;51.612;7.510;2023-04-01T13:14:00;10.90;99.90
22698;DHT22;11516;51.612;7.510;2023-04-01T13:16:42;10.80;99.90
22698;DHT22;11516;51.612;7.510;2023-04-01T13:19:23;10.90;99.90
22698;DHT22;11516;51.612;7.510;2023-04-01T13:22:05;10.80;99.90
22698;DHT22;11516;51.612;7.510;2023-04-01T13:24:57;10.80;99.90
22698;DHT22;11516;51.612;7.510;2023-04-01T13:27:43;10.90;99.90
22698;DHT22;11516;51.612;7.510;2023-04-01T13:30:26;10.90;99.90
22698;DHT22;11516;51.612;7.510;2023-04-01T13:33:12;11.00;99.90
22698;DHT22;11516;51.612;7.510;2023-04-01T13:43:53;10.80;99.90
22698;DHT22;11516;51.612;7.510;2023-04-01T13:52:52;10.80;99.90
22698;DHT22;11516;51.612;7.510;2023-04-01T13:55:39;10.70;99.90
22698;DHT22;11516;51.612;7.510;2023-04-01T14:01:19;10.70;99.90
22698;DHT22;11516;51.612;7.510;2023-04-01T14:06:58;10.60;99.90
22698;DHT22;11516;51.612;7.510;2023-04-01T14:12:43;10.60;99.90
22698;DHT22;11516;51.612;7.510;2023-04-01T14:15:29;10.50;99.90
22698;DHT22;11516;51.612;7.510;2023-04-01T14:20:39;10.50;99.90
22698;DHT22;11516;51.612;7.510;2023-04-01T14:48:36;10.60;99.90
22698;DHT22;11516;51.612;7.510;2023-04-01T14:51:16;10.60;99.90
22698;DHT22;11516;51.612;7.510;2023-04-01T14:53:53;10.50;99.90
22698;DHT22;11516;51.612;7.510;2023-04-01T14:56:43;10.50;99.90
22698;DHT22;11516;51.612;7.510;2023-04-01T15:08:01;10.40;99.90
22698;DHT22;11516;51.612;7.510;2023-04-01T15:18:41;10.60;99.90
22698;DHT22;11516;51.612;7.510;2023-04-01T15:21:45;10.60;99.90
22698;DHT22;11516;51.612;7.510;2023-04-01T15:24:26;10.50;99.90
22698;DHT22;11516;51.612;7.510;2023-04-01T15:27:15;10.50;99.90
22698;DHT22;11516;51.612;7.510;2023-04-01T15:29:54;10.50;99.90
22698;DHT22;11516;51.612;7.510;2023-04-01T15:41:08;10.60;99.90
22698;DHT22;11516;51.612;7.510;2023-04-01T15:43:47;10.60;99.90
22698;DHT22;11516;51.612;7.510;2023-04-01T15:46:48;10.60;99.90
22698;DHT22;11516;51.612;7.510;2023-04-01T15:54:39;10.60;99.90
22698;DHT22;11516;51.612;7.510;2023-04-01T15:57:40;10.60;99.90
22698;DHT22;11516;51.612;7.510;2023-04-01T16:08:47;10.60;99.90
22698;DHT22;11516;51.612;7.510;2023-04-01T16:11:51;10.70;99.90
22698;DHT22;11516;51.612;7.510;2023-04-01T16:20:22;10.70;99.90
22698;DHT22;11516;51.612;7.510;2023-04-01T16:22:58;10.70;99.90
22698;DHT22;11516;51.612;7.510;2023-04-01T16:35:59;10.70;99.90
22698;DHT22;11516;51.612;7.510;2023-04-01T16:38:32;10.60;99.90
22698;DHT22;11516;51.612;7.510;2023-04-01T16:41:24;10.60;99.90
22698;DHT22;11516;51.612;7.510;2023-04-01T16:44:23;10.70;99.90
22698;DHT22;11516;51.612;7.510;2023-04-01T16:46:57;10.60;99.90
22698;DHT22;11516;51.612;7.510;2023-04-01T16:49:25;10.60;99.90
22698;DHT22;11516;51.612;7.510;2023-04-01T16:57:21;10.50;99.90
22698;DHT22;11516;51.612;7.510;2023-04-01T17:08:47;10.40;99.90
22698;DHT22;11516;51.612;7.510;2023-04-01T17:11:16;9.80;99.90
22698;DHT22;11516;51.612;7.510;2023-04-01T17:16:44;10.40;99.90
22698;DHT22;11516;51.612;7.510;2023-04-01T17:22:13;10.40;99.90
22698;DHT22;11516;51.612;7.510;2023-04-01T17:30:41;10.40;99.90
22698;DHT22;11516;51.612;7.510;2023-04-01T17:41:57;10.50;99.90
22698;DHT22;11516;51.612;7.510;2023-04-01T17:44:44;10.40;99.90
22698;DHT22;11516;51.612;7.510;2023-04-01T17:53:42;10.40;99.90
22698;DHT22;11516;51.612;7.510;2023-04-01T17:59:16;10.50;99.90
22698;DHT22;11516;51.612;7.510;2023-04-01T18:02:05;10.40;99.90
22698;DHT22;11516;51.612;7.510;2023-04-01T18:07:48;10.50;99.90
22698;DHT22;11516;51.612;7.510;2023-04-01T18:10:28;10.50;99.90
22698;DHT22;11516;51.612;7.510;2023-04-01T18:13:13;10.40;99.90
22698;DHT22;11516;51.612;7.510;2023-04-01T18:24:16;10.50;99.90
22698;DHT22;11516;51.612;7.510;2023-04-01T18:26:59;10.50;99.90
22698;DHT22;11516;51.612;7.510;2023-04-01T18:34:52;10.50;99.90
22698;DHT22;11516;51.612;7.510;2023-04-01T18:37:24;10.50;99.90
22698;DHT22;11516;51.612;7.510;2023-04-01T18:40:00;10.50;99.90
22698;DHT22;11516;51.612;7.510;2023-04-01T18:43:10;10.50;99.90
22698;DHT22;11516;51.612;7.510;2023-04-01T18:45:53;10.50;99.90
22698;DHT22;11516;51.612;7.510;2023-04-01T18:48:44;10.60;99.90
22698;DHT22;11516;51.612;7.510;2023-04-01T18:51:34;10.60;99.90
22698;DHT22;11516;51.612;7.510;2023-04-01T18:54:19;10.70;99.90
22698;DHT22;11516;51.612;7.510;2023-04-01T18:56:48;10.80;99.90
22698;DHT22;11516;51.612;7.510;2023-04-01T18:59:36;10.70;99.90
22698;DHT22;11516;51.612;7.510;2023-04-01T19:07:45;10.70;99.90
22698;DHT22;11516;51.612;7.510;2023-04-01T19:10:37;10.60;99.90
22698;DHT22;11516;51.612;7.510;2023-04-01T19:16:04;10.40;99.90
22698;DHT22;11516;51.612;7.510;2023-04-01T19:18:53;10.30;99.90
22698;DHT22;11516;51.612;7.510;2023-04-01T19:21:36;10.20;99.90
22698;DHT22;11516;51.612;7.510;2023-04-01T19:35:45;9.90;99.90
22698;DHT22;11516;51.612;7.510;2023-04-01T19:38:30;9.80;99.90
22698;DHT22;11516;51.612;7.510;2023-04-01T19:52:15;9.70;99.90
22698;DHT22;11516;51.612;7.510;2023-04-01T20:00:50;9.60;99.90
22698;DHT22;11516;51.612;7.510;2023-04-01T20:03:32;9.60;99.90
22698;DHT22;11516;51.612;7.510;2023-04-01T20:06:22;9.60;99.90
22698;DHT22;11516;51.612;7.510;2023-04-01T20:14:45;9.50;99.90
22698;DHT22;11516;51.612;7.510;2023-04-01T20:17:23;9.50;99.90
22698;DHT22;11516;51.612;7.510;2023-04-01T20:34:08;9.40;99.90
22698;DHT22;11516;51.612;7.510;2023-04-01T20:39:19;9.30;99.90
22698;DHT22;11516;51.612;7.510;2023-04-01T20:44:46;9.10;99.90
22698;DHT22;11516;51.612;7.510;2023-04-01T20:53:07;8.90;99.90
22698;DHT22;11516;51.612;7.510;2023-04-01T21:06:57;8.60;99.90
22698;DHT22;11516;51.612;7.510;2023-04-01T21:09:50;8.60;99.90
22698;DHT22;11516;51.612;7.510;2023-04-01T21:12:37;8.60;99.90
22698;DHT22;11516;51.612;7.510;2023-04-01T21:15:32;8.50;99.90
22698;DHT22;11516;51.612;7.510;2023-04-01T21:18:34;8.40;99.90
22698;DHT22;11516;51.612;7.510;2023-04-01T21:21:32;8.30;99.90
22698;DHT22;11516;51.612;7.510;2023-04-01T21:38:57;8.10;99.90
22698;DHT22;11516;51.612;7.510;2023-04-01T21:56:28;7.90;99.90
22698;DHT22;11516;51.612;7.510;2023-04-01T21:59:14;7.90;99.90
22698;DHT22;11516;51.612;7.510;2023-04-01T22:02:03;7.90;99.90
22698;DHT22;11516;51.612;7.510;2023-04-01T22:07:28;7.90;99.90
22698;DHT22;11516;51.612;7.510;2023-04-01T22:10:21;10.00;99.90
22698;DHT22;11516;51.612;7.510;2023-04-01T22:13:04;7.80;99.90
22698;DHT22;11516;51.612;7.510;2023-04-01T22:18:32;7.70;99.90
22698;DHT22;11516;51.612;7.510;2023-04-01T22:21:05;7.70;99.90
22698;DHT22;11516;51.612;7.510;2023-04-01T22:24:00;7.60;99.90
22698;DHT22;11516;51.612;7.510;2023-04-01T22:26:33;7.70;99.90
22698;DHT22;11516;51.612;7.510;2023-04-01T22:29:11;7.60;99.90
22698;DHT22;11516;51.612;7.510;2023-04-01T22:32:08;7.60;99.90
22698;DHT22;11516;51.612;7.510;2023-04-01T22:34:57;7.60;99.90
22698;DHT22;11516;51.612;7.510;2023-04-01T22:37:47;7.60;99.90
22698;DHT22;11516;51.612;7.510;2023-04-01T22:40:47;7.60;99.90
22698;DHT22;11516;51.612;7.510;2023-04-01T22:43:27;7.60;99.90
22698;DHT22;11516;51.612;7.510;2023-04-01T22:48:32;7.60;99.90
22698;DHT22;11516;51.612;7.510;2023-04-01T22:54:14;7.40;99.90
22698;DHT22;11516;51.612;7.510;2023-04-01T22:56:27;7.50;99.90
22698;DHT22;11516;51.612;7.510;2023-04-01T22:59:14;7.40;99.90
22698;DHT22;11516;51.612;7.510;2023-04-01T23:02:01;7.40;99.90
22698;DHT22;11516;51.612;7.510;2023-04-01T23:04:32;7.40;99.90
22698;DHT22;11516;51.612;7.510;2023-04-01T23:07:04;7.40;99.90
22698;DHT22;11516;51.612;7.510;2023-04-01T23:09:34;7.30;99.90
22698;DHT22;11516;51.612;7.510;2023-04-01T23:12:07;7.30;99.90
22698;DHT22;11516;51.612;7.510;2023-04-01T23:14:41;8.40;99.90
22698;DHT22;11516;51.612;7.510;2023-04-01T23:17:30;7.30;99.90
22698;DHT22;11516;51.612;7.510;2023-04-01T23:20:16;7.70;99.90
22698;DHT22;11516;51.612;7.510;2023-04-01T23:28:47;7.10;99.90
22698;DHT22;11516;51.612;7.510;2023-04-01T23:31:34;7.10;99.90
22698;DHT22;11516;51.612;7.510;2023-04-01T23:36:43;7.10;99.90
22698;DHT22;11516;51.612;7.510;2023-04-01T23:39:38;7.10;99.90
22698;DHT22;11516;51.612;7.510;2023-04-01T23:42:07;7.00;99.90
22698;DHT22;11516;51.612;7.510;2023-04-01T23:44:38;7.00;99.90
22698;DHT22;11516;51.612;7.510;2023-04-01T23:47:05;6.90;99.90
22698;DHT22;11516;51.612;7.510;2023-04-01T23:49:38;6.90;99.90
22698;DHT22;11516;51.612;7.510;2023-04-01T23:52:24;7.00;99.90
22698;DHT22;11516;51.612;7.510;2023-04-01T23:55:01;7.00;99.90
22698;DHT22;11516;51.612;7.510;2023-04-01T23:57:33;7.00;99.90
